Latest Weather Observations for Milingimbi

IDD60801

Issued at 8:11 am CST Sunday 18 April 2021 (issued every 10 minutes, with the page automatically refreshed every 10 minutes)

About weather observations | Map of weather stations | Latest weather observations for NT | Other Formats
Station Details ID: 014404 Name: MILINGIMBI AIRPORT Lat: -12.09 Lon: 134.89 Height: 15.0 m
Data from the previous 72 hours. | See also: Recent months at Milingimbi
Date/Time
CST
Temp
°C
App
Temp
°C
Dew
Point
°C
Rel
Hum
%
Delta-T
°C
Wind Press
QNH
hPa
Press
MSL
hPa
Rain since
9am
mm
Dir  Spd
km/h
Gust
km/h
Spd
kts
Gust
kts
18/08:00am 25.3 26.3 19.4 70 3.8 S 13 19 7 10 1011.0 1010.9 0.0
18/07:30am 23.9 26.1 19.6 77 2.8 S 7 11 4 6 1010.8 1010.7 0.0
18/07:00am 22.8 25.0 19.6 82 2.0 SSW 7 9 4 5 1010.4 1010.3 0.0
18/06:30am 23.0 25.2 19.6 81 2.2 S 7 9 4 5 1009.9 1009.8 0.0
18/06:00am 23.1 25.5 19.7 81 2.2 S 6 9 3 5 1009.7 1009.6 0.0
18/05:30am 23.3 25.5 19.7 80 2.3 S 7 9 4 5 1009.6 1009.5 0.0
18/05:00am 23.5 25.9 19.6 79 2.5 SSE 6 9 3 5 1009.3 1009.2 0.0
18/04:30am 23.7 25.9 19.6 78 2.6 S 7 11 4 6 1009.4 1009.3 0.0
18/04:00am 23.9 26.1 19.6 77 2.8 S 7 13 4 7 1009.5 1009.4 0.0
18/03:30am 24.0 26.2 19.5 76 2.9 SSE 7 11 4 6 1009.6 1009.5 0.0
18/03:00am 24.2 26.0 19.5 75 3.0 SSE 9 11 5 6 1009.8 1009.7 0.0
18/02:30am 24.3 26.5 19.6 75 3.0 SSE 7 9 4 5 1010.1 1010.0 0.0
18/02:00am 24.8 26.9 19.4 72 3.5 SSE 7 13 4 7 1010.4 1010.3 0.0
18/01:30am 25.2 26.9 19.3 70 3.8 SSE 9 15 5 8 1010.6 1010.5 0.0
18/01:00am 25.3 26.9 19.2 69 3.9 SSE 9 11 5 6 1011.0 1010.9 0.0
18/12:30am 25.7 27.4 19.3 67 4.1 SSE 9 13 5 7 1011.4 1011.3 0.0
18/12:00am 25.9 27.6 19.3 67 4.2 SSE 9 13 5 7 1011.6 1011.5 0.0
 
Date/Time
CST
Temp
°C
App
Temp
°C
Dew
Point
°C
Rel
Hum
%
Delta-T
°C
Wind Press
QNH
hPa
Press
MSL
hPa
Rain since
9am
mm
Dir  Spd
km/h
Gust
km/h
Spd
kts
Gust
kts
17/11:30pm 26.3 27.6 19.2 65 4.6 SSE 11 15 6 8 1011.7 1011.6 0.0
17/11:00pm 26.4 27.7 19.3 65 4.6 SSE 11 17 6 9 1011.8 1011.7 0.0
17/10:30pm 26.8 27.4 19.4 64 4.8 SSE 15 22 8 12 1012.1 1012.0 0.0
17/10:00pm 27.1 27.8 19.7 64 4.8 SE 15 22 8 12 1012.2 1012.1 0.0
17/09:30pm 27.6 28.4 19.9 63 5.0 SE 15 24 8 13 1012.1 1012.0 0.0
17/09:00pm 28.1 28.9 19.9 61 5.4 SE 15 24 8 13 1011.8 1011.7 0.0
17/08:30pm 28.4 29.2 19.9 60 5.6 SE 15 24 8 13 1011.4 1011.3 0.0
17/08:00pm 28.9 29.8 20.1 59 5.8 SE 15 22 8 12 1010.9 1010.8 0.0
17/07:30pm 29.3 29.5 20.2 58 6.0 SE 19 28 10 15 1010.5 1010.4 0.0
17/07:00pm 29.6 30.2 20.2 57 6.2 SE 17 28 9 15 1010.3 1010.2 0.0
17/06:30pm 30.2 30.2 18.9 50 7.3 SE 17 24 9 13 1009.9 1009.8 0.0
17/06:00pm 30.9 31.8 19.3 50 7.6 SE 13 19 7 10 1009.3 1009.2 0.0
17/05:30pm 31.5 32.1 19.5 49 7.9 SE 15 26 8 14 1008.9 1008.8 0.0
17/05:00pm 32.2 32.3 19.1 45 8.6 SE 17 26 9 14 1008.6 1008.5 0.0
17/04:30pm 32.9 34.2 20.1 47 8.5 SE 13 22 7 12 1008.3 1008.2 0.0
17/04:00pm 33.3 33.1 18.6 41 9.6 ESE 17 26 9 14 1008.2 1008.1 0.0
17/03:30pm 33.6 33.8 19.3 43 9.4 ESE 17 28 9 15 1008.4 1008.3 0.0
17/03:00pm 34.0 34.0 18.9 41 9.9 ESE 17 28 9 15 1008.8 1008.7 0.0
17/02:30pm 34.0 33.9 19.6 42 9.5 ESE 19 32 10 17 1009.1 1009.0 0.0
17/02:00pm 33.5 34.1 20.3 46 8.8 ESE 17 30 9 16 1009.4 1009.3 0.0
17/01:30pm 33.7 34.0 19.7 43 9.3 ESE 17 28 9 15 1009.7 1009.6 0.0
17/01:00pm 33.9 34.3 19.9 43 9.3 ESE 17 28 9 15 1010.2 1010.1 0.0
17/12:30pm 33.5 33.2 19.2 43 9.4 ESE 19 32 10 17 1010.7 1010.6 0.0
17/12:00pm 32.8 32.4 19.3 45 8.9 ESE 20 32 11 17 1011.3 1011.2 0.0
17/11:30am 33.2 33.4 19.3 44 9.1 SE 17 30 9 16 1011.7 1011.6 0.0
17/11:00am 32.3 32.2 19.5 46 8.4 SE 19 30 10 16 1012.1 1012.0 0.0
17/10:30am 32.0 33.7 20.9 52 7.4 ESE 13 20 7 11 1012.4 1012.3 0.0
17/10:00am 31.4 32.6 20.7 53 7.1 ESE 15 24 8 13 1012.8 1012.7 0.0
17/09:30am 29.7 31.6 21.4 61 5.6 SSE 13 19 7 10 1012.9 1012.8 0.0
17/09:00am 28.9 31.4 22.4 68 4.4 SSE 13 15 7 8 1012.9 1012.8 1.0
17/08:30am 27.6 29.9 22.1 72 3.7 SSE 13 19 7 10 1012.9 1012.8 1.0
17/08:00am 26.3 29.1 21.5 75 3.2 S 9 13 5 7 1012.7 1012.6 1.0
17/07:30am 24.5 28.3 22.4 88 1.4 S 6 7 3 4 1012.4 1012.3 1.0
17/07:00am 24.4 28.3 22.5 89 1.3 S 6 9 3 5 1012.0 1011.9 1.0
17/06:30am 24.4 28.3 22.5 89 1.3 S 6 6 3 3 1011.6 1011.5 1.0
17/06:00am 24.8 28.5 22.3 86 1.7 S 6 7 3 4 1011.2 1011.1 1.0
17/05:30am 25.3 29.5 22.4 84 1.9 SSE 4 6 2 3 1011.1 1011.0 1.0
17/05:00am 25.9 29.7 22.4 81 2.4 SE 6 9 3 5 1010.9 1010.8 1.0
17/04:30am 26.8 30.4 22.4 77 3.0 SSE 7 11 4 6 1010.9 1010.8 1.0
17/04:00am 26.9 30.3 22.7 78 2.8 ESE 9 17 5 9 1011.1 1011.0 1.0
17/03:30am 27.2 30.0 23.0 78 2.9 ESE 13 20 7 11 1011.3 1011.2 1.0
17/03:00am 25.9 30.3 23.4 86 1.7 ESE 6 9 3 5 1011.2 1011.1 1.0
17/02:30am 26.0 29.6 23.1 84 2.0 SE 9 13 5 7 1011.8 1011.7 1.0
17/02:00am 26.6 30.3 23.3 82 2.3 SSE 9 11 5 6 1012.1 1012.0 1.0
17/01:30am 27.1 30.7 23.1 79 2.7 SE 9 17 5 9 1012.2 1012.1 1.0
17/01:00am 27.6 31.3 23.2 77 3.0 ESE 9 13 5 7 1012.3 1012.2 1.0
17/12:30am 27.8 31.4 23.0 75 3.3 E 9 17 5 9 1012.3 1012.2 1.0
17/12:00am 27.4 31.5 23.2 78 2.9 E 7 15 4 8 1012.4 1012.3 1.0
 
Date/Time
CST
Temp
°C
App
Temp
°C
Dew
Point
°C
Rel
Hum
%
Delta-T
°C
Wind Press
QNH
hPa
Press
MSL
hPa
Rain since
9am
mm
Dir  Spd
km/h
Gust
km/h
Spd
kts
Gust
kts
16/11:30pm 27.1 31.3 23.1 79 2.7 ESE 6 11 3 6 1012.5 1012.4 1.0
16/11:00pm 27.3 31.5 23.5 80 2.6 SSE 7 11 4 6 1012.6 1012.5 1.0
16/10:30pm 26.9 31.3 23.8 83 2.1 SE 7 9 4 5 1012.6 1012.5 1.0
16/10:00pm 26.1 32.4 24.7 92 1.0 CALM 0 0 0 0 1012.6 1012.5 1.0
16/09:30pm 26.2 32.4 24.6 91 1.1 CALM 0 0 0 0 1012.5 1012.4 1.0
16/09:00pm 26.0 31.4 23.9 88 1.4 ENE 2 7 1 4 1012.3 1012.2 1.0
16/08:30pm 25.9 29.7 23.4 86 1.7 NE 9 15 5 8 1012.0 1011.9 1.0
16/08:00pm 26.2 32.2 24.2 89 1.4 CALM 0 0 0 0 1011.2 1011.1 1.0
16/07:30pm 26.3 31.0 24.0 87 1.6 NE 6 9 3 5 1010.8 1010.7 1.0
16/07:00pm 26.2 30.3 23.9 87 1.6 NE 9 15 5 8 1010.6 1010.5 1.0
16/06:30pm 25.8 29.3 22.9 84 2.0 NE 9 15 5 8 1010.4 1010.3 1.0
16/06:00pm 29.9 33.8 22.9 66 4.8 NNE 7 13 4 7 1010.1 1010.0 0.0
16/05:30pm 30.5 33.7 22.4 62 5.5 N 9 15 5 8 1009.7 1009.6 0.0
16/05:00pm 31.6 34.9 22.6 59 6.2 NNE 9 13 5 7 1009.4 1009.3 0.0
16/04:30pm 31.2 33.8 21.9 57 6.3 NE 11 17 6 9 1009.2 1009.1 0.0
16/04:00pm 32.0 35.4 22.7 58 6.4 NNE 9 15 5 8 1009.0 1008.9 0.0
16/03:30pm 32.1 35.1 21.9 54 6.9 NE 9 15 5 8 1008.9 1008.8 0.0
16/03:00pm 32.0 34.4 21.5 53 7.1 ENE 11 19 6 10 1009.0 1008.9 0.0
16/02:30pm 31.6 33.8 21.2 54 7.0 ENE 11 15 6 8 1009.3 1009.2 0.0
16/02:00pm 31.7 34.0 22.1 56 6.5 NE 13 19 7 10 1009.6 1009.5 0.0
16/01:30pm 31.8 34.8 21.9 55 6.7 ENE 9 17 5 9 1010.0 1009.9 0.0
16/01:00pm 31.3 33.9 22.0 57 6.3 E 11 19 6 10 1010.3 1010.2 0.0
16/12:30pm 31.0 33.6 22.6 61 5.7 E 13 19 7 10 1010.9 1010.8 0.0
16/12:00pm 30.7 33.5 22.3 61 5.7 ENE 11 17 6 9 1011.4 1011.3 0.0
16/11:30am 30.6 33.1 22.5 62 5.5 E 13 22 7 12 1012.0 1011.9 0.0
16/11:00am 30.7 33.5 22.3 61 5.7 ESE 11 20 6 11 1012.3 1012.2 0.0
16/10:30am 30.3 33.3 22.7 64 5.2 ESE 11 20 6 11 1012.6 1012.5 0.0
16/10:00am 30.2 33.2 22.6 63 5.2 ESE 11 20 6 11 1012.7 1012.6 0.0
16/09:30am 29.8 33.3 22.8 66 4.8 ESE 9 19 5 10 1012.8 1012.7 0.0
16/09:00am 29.2 31.8 22.7 68 4.4 SE 13 22 7 12 1012.8 1012.7 0.0
16/08:30am 28.4 31.0 22.6 71 3.9 SE 13 20 7 11 1012.5 1012.4 0.0
16/08:00am 27.5 30.6 22.9 76 3.1 SE 11 19 6 10 1012.4 1012.3 0.0
16/07:30am 25.9 29.6 22.6 82 2.2 SE 7 13 4 7 1012.2 1012.1 0.0
16/07:00am 24.6 28.0 22.7 89 1.3 SE 9 11 5 6 1011.8 1011.7 0.0
16/06:30am 24.3 28.0 22.6 90 1.1 SSE 7 9 4 5 1011.7 1011.6 0.0
16/06:00am 24.4 28.2 22.7 90 1.1 SE 7 9 4 5 1011.5 1011.4 0.0
16/05:30am 24.5 28.3 22.8 90 1.1 SSE 7 11 4 6 1011.2 1011.1 0.0
16/05:00am 24.6 28.4 22.8 90 1.2 SE 7 9 4 5 1010.9 1010.8 0.0
16/04:30am 24.7 28.7 22.8 89 1.3 SE 6 9 3 5 1010.7 1010.6 0.0
16/04:00am 24.9 28.9 22.8 88 1.4 SSE 6 7 3 4 1010.7 1010.6 0.0
16/03:30am 25.1 29.1 22.8 87 1.6 SE 6 9 3 5 1010.7 1010.6 0.0
16/03:00am 25.5 29.3 22.8 85 1.8 SSE 7 9 4 5 1010.7 1010.6 0.0
16/02:30am 26.0 29.9 22.9 83 2.1 SSE 7 11 4 6 1010.9 1010.8 0.0
16/02:00am 26.8 30.5 23.3 81 2.4 SE 9 13 5 7 1011.1 1011.0 0.0
16/01:30am 27.0 31.2 23.5 81 2.4 SE 7 13 4 7 1011.3 1011.2 0.0
16/01:00am 27.3 31.0 23.3 79 2.7 SE 9 13 5 7 1011.5 1011.4 0.0
16/12:30am 27.9 31.7 23.5 77 3.0 SE 9 17 5 9 1011.5 1011.4 0.0
16/12:00am 28.4 31.9 22.9 72 3.8 E 9 17 5 9 1011.7 1011.6 0.0
 
Date/Time
CST
Temp
°C
App
Temp
°C
Dew
Point
°C
Rel
Hum
%
Delta-T
°C
Wind Press
QNH
hPa
Press
MSL
hPa
Rain since
9am
mm
Dir  Spd
km/h
Gust
km/h
Spd
kts
Gust
kts
15/11:30pm 28.5 31.9 22.7 71 3.9 E 9 20 5 11 1011.9 1011.8 0.0
15/11:00pm 28.4 32.4 23.1 73 3.6 E 7 17 4 9 1012.0 1011.9 0.0
15/10:30pm 28.3 31.8 22.8 72 3.7 E 9 15 5 8 1012.0 1011.9 0.0
15/10:00pm 28.6 31.8 22.3 68 4.3 E 9 17 5 9 1012.0 1011.9 0.0
15/09:30pm 28.7 31.4 22.2 68 4.4 E 11 19 6 10 1012.0 1011.9 0.0
15/09:00pm 28.8 31.7 21.8 66 4.7 E 9 17 5 9 1011.7 1011.6 0.0
15/08:30pm 28.9 32.1 22.4 68 4.4 E 9 17 5 9 1011.3 1011.2 0.0
15/08:00pm 28.7 32.3 23.1 71 3.8 E 9 17 5 9 1010.8 1010.7 0.0
15/07:30pm 29.0 31.9 23.2 71 4.0 ENE 13 24 7 13 1010.4 1010.3 0.0
15/07:00pm 29.4 33.0 23.1 69 4.3 E 9 19 5 10 1010.0 1009.9 0.0
15/06:30pm 29.5 33.6 23.2 69 4.3 E 7 13 4 7 1009.7 1009.6 0.0
15/06:00pm 29.7 32.6 22.4 65 5.0 ENE 11 17 6 9 1009.3 1009.2 0.0
15/05:30pm 30.0 32.7 22.2 63 5.3 ENE 11 15 6 8 1009.0 1008.9 0.0
15/05:00pm 30.4 32.9 21.8 60 5.8 ENE 11 19 6 10 1009.0 1008.9 0.0
15/04:30pm 31.1 33.1 21.6 57 6.4 NE 13 20 7 11 1008.8 1008.7 0.0
15/04:00pm 31.2 33.0 21.9 57 6.3 ENE 15 22 8 12 1008.7 1008.6 0.0
15/03:30pm 32.1 35.0 22.5 57 6.6 ENE 11 20 6 11 1008.5 1008.4 0.0
15/03:00pm 31.9 33.9 22.3 56 6.6 ENE 15 22 8 12 1008.8 1008.7 0.0
15/02:30pm 31.7 34.2 22.4 58 6.4 ENE 13 22 7 12 1009.0 1008.9 0.0
15/02:00pm 31.4 33.7 22.1 57 6.3 NE 13 24 7 13 1009.3 1009.2 0.0
15/01:30pm 31.8 34.4 21.9 55 6.7 E 11 20 6 11 1009.6 1009.5 0.0
15/01:00pm 31.9 34.3 22.3 56 6.5 E 13 20 7 11 1010.1 1010.0 0.0
15/12:30pm 31.7 33.3 21.5 54 6.9 ESE 15 24 8 13 1010.7 1010.6 0.0
15/12:00pm 30.7 32.2 21.2 57 6.4 E 15 24 8 13 1011.0 1010.9 0.0
15/11:30am 30.4 32.0 21.5 59 6.0 ENE 15 22 8 12 1011.5 1011.4 0.0
15/11:00am 30.9 33.6 22.2 59 5.9 ESE 11 17 6 9 1012.0 1011.9 0.0
15/10:30am 30.7 33.6 21.8 59 6.0 ESE 9 17 5 9 1012.4 1012.3 0.0
15/10:00am 30.2 32.3 22.4 63 5.3 ESE 15 22 8 12 1012.5 1012.4 0.0
15/09:30am 29.8 32.2 22.3 64 5.1 ESE 13 20 7 11 1012.4 1012.3 0.0
15/09:00am 29.3 32.0 22.8 68 4.4 SE 13 19 7 10 1012.4 1012.3 3.8
15/08:30am 27.9 30.6 22.2 71 3.8 SE 11 19 6 10 1012.3 1012.2 3.8

Other formats

Comma delimited format used in spreadsheet applications
http://www.bom.gov.au/fwo/IDD60801/IDD60801.94140.axf

JavaScript Object Notation format (JSON) in row-major order
http://www.bom.gov.au/fwo/IDD60801/IDD60801.94140.json

Data quality

Most of these data are generated automatically and are frequently updated. Quality checks on data are not normally performed. It is possible for incorrect values to appear. Refer to information at About Latest Weather Observations and please check the disclaimer before using these data.